createdAt,value
2022-12-08T00:03:47.188Z,222.27
2022-12-08T00:09:07.590Z,211.70
2022-12-08T00:14:09.504Z,112.45
2022-12-08T00:19:11.530Z,121.57
2022-12-08T00:24:13.637Z,220.77
2022-12-08T00:29:17.664Z,182.68
2022-12-08T00:34:20.239Z,323.17
2022-12-08T00:39:22.255Z,231.25
2022-12-08T00:44:24.163Z,252.43
2022-12-08T00:49:26.164Z,208.85
2022-12-08T00:54:28.048Z,261.05
2022-12-08T00:59:29.933Z,220.30
2022-12-08T01:04:31.817Z,247.88
2022-12-08T01:09:34.337Z,222.43
2022-12-08T01:14:37.507Z,323.23
2022-12-08T01:19:39.572Z,295.73
2022-12-08T01:24:41.508Z,216.50
2022-12-08T01:29:43.404Z,231.60
2022-12-08T01:34:45.405Z,175.13
2022-12-08T01:39:47.360Z,200.77
2022-12-08T01:45:04.598Z,172.70
2022-12-08T01:50:10.290Z,185.38
2022-12-08T01:55:20.996Z,213.45
2022-12-08T02:00:23.971Z,199.13
2022-12-08T02:05:29.472Z,215.75
2022-12-08T02:10:35.106Z,263.20
2022-12-08T02:15:46.556Z,240.73
2022-12-08T02:21:22.053Z,162.98
2022-12-08T02:26:38.972Z,178.05
2022-12-08T02:32:02.170Z,178.82
2022-12-08T02:37:14.923Z,204.65
2022-12-08T02:42:40.075Z,153.32
2022-12-08T02:47:43.149Z,160.25
2022-12-08T02:52:47.723Z,127.47
2022-12-08T02:58:02.211Z,127.43
2022-12-08T03:03:16.893Z,66.57
2022-12-08T03:09:16.128Z,77.00
2022-12-08T03:14:18.231Z,105.47
2022-12-08T03:19:24.573Z,121.75
2022-12-08T03:24:26.679Z,125.15
2022-12-08T03:29:30.054Z,147.90
2022-12-08T03:34:32.056Z,142.10
2022-12-08T03:39:33.960Z,174.45
2022-12-08T03:44:36.013Z,152.60
2022-12-08T03:49:37.963Z,130.27
2022-12-08T03:54:39.858Z,106.93
2022-12-08T03:59:41.763Z,110.03
2022-12-08T04:04:44.032Z,92.97
2022-12-08T04:09:45.928Z,89.70
2022-12-08T04:14:47.834Z,114.45
2022-12-08T04:19:49.663Z,117.93
2022-12-08T04:24:51.683Z,124.55
2022-12-08T04:29:53.647Z,105.30
2022-12-08T04:34:55.743Z,130.05
2022-12-08T04:39:57.662Z,113.90
2022-12-08T04:44:59.545Z,125.20
2022-12-08T04:50:01.519Z,139.13
2022-12-08T04:55:04.036Z,142.85
2022-12-08T05:00:07.035Z,151.50
2022-12-08T05:05:09.611Z,8.38
2022-12-08T05:10:11.596Z,11.48
2022-12-08T05:15:13.587Z,4.95
2022-12-08T05:20:15.486Z,22.92
2022-12-08T05:25:17.575Z,11.80
2022-12-08T05:30:19.612Z,12.45
2022-12-08T05:35:21.617Z,6.10
2022-12-08T05:40:23.496Z,26.70
2022-12-08T05:45:25.494Z,5.75
2022-12-08T05:50:27.454Z,4.00
2022-12-08T05:55:32.069Z,6.50
2022-12-08T06:00:36.828Z,5.90
2022-12-08T06:05:38.942Z,10.27
2022-12-08T06:10:43.151Z,9.38
2022-12-08T06:15:45.251Z,10.00
2022-12-08T06:20:47.832Z,3.75
2022-12-08T06:25:49.744Z,6.93
2022-12-08T06:30:51.622Z,9.75
2022-12-08T06:35:53.572Z,13.75
2022-12-08T06:40:56.459Z,12.70
2022-12-08T06:45:58.421Z,9.40
2022-12-08T06:51:11.846Z,4.82
2022-12-08T06:56:15.854Z,4.78
2022-12-08T07:01:17.908Z,7.93
2022-12-08T07:06:23.077Z,13.75
2022-12-08T07:11:24.969Z,8.18
2022-12-08T07:16:26.942Z,8.50
2022-12-08T07:21:29.017Z,7.20
2022-12-08T07:26:31.022Z,6.85
2022-12-08T07:31:32.977Z,4.53
2022-12-08T07:36:35.154Z,2.25
2022-12-08T07:41:37.121Z,4.13
2022-12-08T07:46:39.231Z,3.75
2022-12-08T07:51:41.243Z,4.65
2022-12-08T07:56:43.174Z,4.38
2022-12-08T08:01:45.746Z,3.67
2022-12-08T08:06:47.847Z,7.10
2022-12-08T08:12:14.322Z,3.20
2022-12-08T08:17:11.686Z,4.75
2022-12-08T08:22:13.616Z,3.38
2022-12-08T08:27:16.943Z,5.45
2022-12-08T08:32:19.294Z,3.85
2022-12-08T08:37:21.262Z,2.78
2022-12-08T08:42:23.400Z,4.93
2022-12-08T08:47:26.775Z,6.35
2022-12-08T08:52:28.770Z,3.78
2022-12-08T08:57:30.657Z,3.95
2022-12-08T09:02:32.925Z,4.75
2022-12-08T09:07:34.943Z,13.10
2022-12-08T09:12:36.833Z,3.88
2022-12-08T09:17:38.771Z,4.18
2022-12-08T09:22:40.799Z,3.80
2022-12-08T09:27:43.078Z,5.38
2022-12-08T09:32:44.942Z,2.83
2022-12-08T09:37:46.846Z,2.83
2022-12-08T09:43:06.607Z,4.05
2022-12-08T09:48:23.456Z,4.30
2022-12-08T09:53:35.069Z,5.20
2022-12-08T09:58:59.836Z,5.57
2022-12-08T10:04:02.185Z,4.55
2022-12-08T10:09:28.907Z,3.75
2022-12-08T10:14:38.963Z,4.22
2022-12-08T10:19:43.148Z,4.95
2022-12-08T10:24:53.870Z,12.15
2022-12-08T10:29:55.836Z,4.05
2022-12-08T10:35:00.775Z,6.82
2022-12-08T10:40:11.076Z,4.13
2022-12-08T10:45:24.185Z,7.88
2022-12-08T10:50:56.717Z,5.40
2022-12-08T10:56:01.594Z,8.13
2022-12-08T11:01:13.074Z,10.25
2022-12-08T11:06:19.870Z,4.70
2022-12-08T11:11:36.783Z,10.07
2022-12-08T11:16:42.371Z,6.72
2022-12-08T11:21:44.704Z,6.57
2022-12-08T11:27:01.213Z,8.90
2022-12-08T11:32:23.104Z,5.35
2022-12-08T11:37:41.261Z,4.70
2022-12-08T11:43:11.966Z,10.00
2022-12-08T11:48:16.777Z,4.85
2022-12-08T11:53:27.926Z,8.00
2022-12-08T11:58:46.242Z,5.25
2022-12-08T12:04:00.577Z,1.60
2022-12-08T12:09:19.677Z,1.98
2022-12-08T12:14:53.418Z,3.42
2022-12-08T12:19:59.583Z,1.83
2022-12-08T12:25:02.838Z,7.43
2022-12-08T12:30:28.163Z,3.30
2022-12-08T12:35:37.215Z,4.38
2022-12-08T12:40:41.564Z,1.13
2022-12-08T12:45:45.764Z,2.42
2022-12-08T12:50:50.287Z,2.83
2022-12-08T12:56:00.581Z,4.15
2022-12-08T13:01:11.851Z,5.68
2022-12-08T13:06:15.463Z,4.82
2022-12-08T13:11:17.556Z,4.00
2022-12-08T13:16:26.218Z,1.35
2022-12-08T13:21:39.142Z,2.05
2022-12-08T13:27:08.029Z,2.40
2022-12-08T13:32:09.903Z,5.03
2022-12-08T13:37:11.826Z,5.60
2022-12-08T13:42:19.767Z,5.88
2022-12-08T13:47:37.181Z,3.13
2022-12-08T13:58:04.394Z,3.78
2022-12-08T14:03:13.024Z,5.82
2022-12-08T14:13:56.254Z,7.00
2022-12-08T14:19:05.869Z,7.65
2022-12-08T14:24:10.807Z,4.80
2022-12-08T14:29:28.896Z,4.90
2022-12-08T14:34:40.399Z,7.18
2022-12-08T14:39:42.494Z,2.33
2022-12-08T14:45:00.516Z,3.35
2022-12-08T14:50:03.839Z,3.22
2022-12-08T14:55:07.399Z,5.00
2022-12-08T15:00:11.232Z,6.20
2022-12-08T15:05:16.767Z,13.48
2022-12-08T15:10:29.700Z,5.30
2022-12-08T15:15:32.766Z,12.20
2022-12-08T15:20:48.871Z,10.93
2022-12-08T15:25:50.772Z,7.25
2022-12-08T15:30:52.671Z,4.72
2022-12-08T15:35:54.542Z,105.50
2022-12-08T15:40:57.511Z,199.38
2022-12-08T15:46:00.362Z,641.97
2022-12-08T15:51:02.486Z,687.58
2022-12-08T16:01:28.071Z,675.88
2022-12-08T16:12:10.826Z,692.63
2022-12-08T16:17:16.812Z,546.85
2022-12-08T16:33:03.797Z,685.38
2022-12-08T16:38:05.851Z,615.90
2022-12-08T16:43:08.889Z,669.45
2022-12-08T16:48:13.438Z,684.92
2022-12-08T16:53:15.345Z,698.50
2022-12-08T16:58:18.575Z,691.97
2022-12-08T17:03:20.464Z,686.00
2022-12-08T17:08:22.477Z,694.15
2022-12-08T17:13:24.324Z,691.45
2022-12-08T17:18:26.162Z,694.30
2022-12-08T17:23:27.900Z,690.22
2022-12-08T17:28:58.428Z,693.42
2022-12-08T17:33:52.318Z,694.25
2022-12-08T17:38:54.636Z,699.83
2022-12-08T17:43:56.741Z,694.20
2022-12-08T17:48:58.594Z,694.85
2022-12-08T17:54:00.485Z,130.60
2022-12-08T17:59:02.874Z,166.35
2022-12-08T18:04:05.798Z,693.03
2022-12-08T18:09:07.933Z,688.33
2022-12-08T18:14:10.330Z,287.80
2022-12-08T18:19:13.120Z,282.75
2022-12-08T18:24:19.681Z,319.58
2022-12-08T18:29:21.837Z,377.25
2022-12-08T18:34:23.602Z,363.08
2022-12-08T18:39:26.790Z,652.83
2022-12-08T18:44:28.876Z,691.40
2022-12-08T18:49:30.674Z,691.30
2022-12-08T18:54:58.037Z,552.80
2022-12-08T18:59:54.700Z,693.60
2022-12-08T19:04:56.540Z,691.10
2022-12-08T19:09:59.396Z,692.08
2022-12-08T19:15:01.313Z,692.88
2022-12-08T19:20:03.839Z,480.75
2022-12-08T19:25:06.053Z,486.50
2022-12-08T19:30:08.461Z,494.27
2022-12-08T19:35:10.832Z,692.28
2022-12-08T19:40:31.769Z,689.72
2022-12-08T19:45:35.291Z,622.25
2022-12-08T19:50:37.348Z,795.95
2022-12-08T19:55:39.782Z,699.45
2022-12-08T20:00:42.321Z,694.13
2022-12-08T20:05:44.660Z,689.25
2022-12-08T20:10:46.922Z,691.92
2022-12-08T20:15:49.224Z,693.28
2022-12-08T20:20:51.536Z,696.97
2022-12-08T20:25:53.376Z,703.97
2022-12-08T20:30:55.257Z,703.90
2022-12-08T20:36:01.251Z,699.53
2022-12-08T20:41:03.294Z,667.05
2022-12-08T20:46:06.205Z,696.08
2022-12-08T20:51:08.396Z,694.08
2022-12-08T20:56:13.788Z,698.35
2022-12-08T21:01:17.210Z,701.47
2022-12-08T21:06:23.393Z,708.10
2022-12-08T21:11:25.310Z,712.50
2022-12-08T21:16:27.369Z,704.90
2022-12-08T21:21:29.414Z,705.80
2022-12-08T21:26:31.529Z,711.58
2022-12-08T21:31:33.708Z,709.78
2022-12-08T21:36:35.811Z,708.08
2022-12-08T21:41:56.043Z,703.20
2022-12-08T21:46:58.027Z,467.75
2022-12-08T21:51:59.942Z,704.65
2022-12-08T21:57:02.082Z,707.42
2022-12-08T22:02:04.136Z,623.85
2022-12-08T22:07:09.764Z,490.08
2022-12-08T22:12:16.801Z,536.63
2022-12-08T22:17:19.039Z,706.03
2022-12-08T22:22:21.155Z,707.60
2022-12-08T22:27:22.958Z,703.45
2022-12-08T22:32:24.860Z,713.90
2022-12-08T22:37:26.902Z,712.47
2022-12-08T22:42:28.932Z,709.55
2022-12-08T22:47:30.707Z,718.95
2022-12-08T22:52:32.674Z,709.47
2022-12-08T22:57:34.648Z,707.72
2022-12-08T23:02:37.577Z,713.85
2022-12-08T23:07:39.585Z,710.97
2022-12-08T23:12:41.568Z,702.95
2022-12-08T23:17:43.526Z,707.33
2022-12-08T23:22:45.477Z,712.75
2022-12-08T23:27:47.598Z,710.33
2022-12-08T23:32:49.497Z,709.65
2022-12-08T23:37:53.713Z,701.03
2022-12-08T23:42:55.569Z,710.85
2022-12-08T23:47:57.469Z,708.80
2022-12-08T23:52:59.365Z,708.13
2022-12-08T23:58:01.469Z,710.55
